createdAt,value
2022-10-28T00:01:13.040Z,10.70
2022-10-28T00:03:43.781Z,10.70
2022-10-28T00:06:14.733Z,10.80
2022-10-28T00:08:42.629Z,10.70
2022-10-28T00:11:12.608Z,10.70
2022-10-28T00:13:41.245Z,10.70
2022-10-28T00:16:11.963Z,10.70
2022-10-28T00:18:40.185Z,10.60
2022-10-28T00:21:11.439Z,10.60
2022-10-28T00:23:39.607Z,10.50
2022-10-28T00:26:09.321Z,10.50
2022-10-28T00:28:40.654Z,10.50
2022-10-28T00:31:09.964Z,10.50
2022-10-28T00:33:38.151Z,10.60
2022-10-28T00:36:12.523Z,10.50
2022-10-28T00:38:40.987Z,10.60
2022-10-28T00:41:09.743Z,10.60
2022-10-28T00:43:40.211Z,10.60
2022-10-28T00:46:15.797Z,10.50
2022-10-28T00:48:46.493Z,10.60
2022-10-28T00:51:17.295Z,10.50
2022-10-28T00:53:48.786Z,10.50
2022-10-28T00:56:17.765Z,10.50
2022-10-28T00:58:46.975Z,10.40
2022-10-28T01:01:15.076Z,10.40
2022-10-28T01:03:42.938Z,10.50
2022-10-28T01:06:11.674Z,10.50
2022-10-28T01:08:40.792Z,10.50
2022-10-28T01:12:00.343Z,10.50
2022-10-28T01:14:41.607Z,10.50
2022-10-28T01:17:23.715Z,10.40
2022-10-28T01:20:36.188Z,10.50
2022-10-28T01:23:17.127Z,10.40
2022-10-28T01:26:37.698Z,10.30
2022-10-28T01:29:47.394Z,10.40
2022-10-28T01:32:24.577Z,10.30
2022-10-28T01:35:06.578Z,10.40
2022-10-28T01:37:39.024Z,10.40
2022-10-28T01:40:13.107Z,10.40
2022-10-28T01:42:45.895Z,10.30
2022-10-28T01:45:20.162Z,10.30
2022-10-28T01:47:55.024Z,10.30
2022-10-28T01:50:26.550Z,10.30
2022-10-28T01:52:57.757Z,10.30
2022-10-28T01:55:28.922Z,10.30
2022-10-28T01:58:00.098Z,10.30
2022-10-28T02:00:28.541Z,10.30
2022-10-28T02:02:57.874Z,10.30
2022-10-28T02:05:41.035Z,10.30
2022-10-28T02:08:31.012Z,10.20
2022-10-28T02:11:16.631Z,10.20
2022-10-28T02:13:53.348Z,10.20
2022-10-28T02:16:25.903Z,10.20
2022-10-28T02:19:02.993Z,10.20
2022-10-28T02:21:38.135Z,10.10
2022-10-28T02:24:14.910Z,10.10
2022-10-28T02:26:47.943Z,10.10
2022-10-28T02:29:21.831Z,10.00
2022-10-28T02:31:54.746Z,9.90
2022-10-28T02:34:28.310Z,9.90
2022-10-28T02:36:57.471Z,9.80
2022-10-28T02:39:30.262Z,9.80
2022-10-28T02:42:03.725Z,9.80
2022-10-28T02:44:39.458Z,9.80
2022-10-28T02:47:11.041Z,9.80
2022-10-28T02:49:44.669Z,9.80
2022-10-28T02:52:13.602Z,9.70
2022-10-28T02:54:44.542Z,9.80
2022-10-28T02:57:16.703Z,9.80
2022-10-28T02:59:44.717Z,9.80
2022-10-28T03:02:12.511Z,9.80
2022-10-28T03:04:41.722Z,9.70
2022-10-28T03:07:09.474Z,9.80
2022-10-28T03:09:37.330Z,9.80
2022-10-28T03:12:05.586Z,9.80
2022-10-28T03:14:33.324Z,9.70
2022-10-28T03:17:01.192Z,9.70
2022-10-28T03:19:29.073Z,9.70
2022-10-28T03:21:58.184Z,9.80
2022-10-28T03:24:25.966Z,9.80
2022-10-28T03:26:53.759Z,9.80
2022-10-28T03:29:21.555Z,9.80
2022-10-28T03:31:49.302Z,9.70
2022-10-28T03:34:17.044Z,9.60
2022-10-28T03:36:44.801Z,9.70
2022-10-28T03:39:14.011Z,9.70
2022-10-28T03:41:41.974Z,9.60
2022-10-28T03:44:09.803Z,9.60
2022-10-28T03:46:37.587Z,9.50
2022-10-28T03:49:05.446Z,9.60
2022-10-28T03:51:33.237Z,9.60
2022-10-28T03:54:01.067Z,9.50
2022-10-28T03:56:30.259Z,9.50
2022-10-28T03:58:58.050Z,9.50
2022-10-28T04:01:26.084Z,9.50
2022-10-28T04:03:54.065Z,9.50
2022-10-28T04:06:21.822Z,9.50
2022-10-28T04:08:49.686Z,9.50
2022-10-28T04:11:17.480Z,9.40
2022-10-28T04:13:46.539Z,9.40
2022-10-28T04:16:14.283Z,9.30
2022-10-28T04:18:42.099Z,9.30
2022-10-28T04:21:09.831Z,9.40
2022-10-28T04:23:37.588Z,9.40
2022-10-28T04:26:05.750Z,9.40
2022-10-28T04:28:33.583Z,9.40
2022-10-28T04:31:03.094Z,9.40
2022-10-28T04:33:30.931Z,9.40
2022-10-28T04:35:58.681Z,9.30
2022-10-28T04:38:26.468Z,9.20
2022-10-28T04:40:54.377Z,9.20
2022-10-28T04:43:22.152Z,9.20
2022-10-28T04:45:49.922Z,9.20
2022-10-28T04:48:19.116Z,9.20
2022-10-28T04:50:46.934Z,9.20
2022-10-28T04:53:14.842Z,9.20
2022-10-28T04:55:42.630Z,9.20
2022-10-28T04:58:10.994Z,9.20
2022-10-28T05:00:38.775Z,9.10
2022-10-28T05:03:06.706Z,9.20
2022-10-28T05:05:35.881Z,9.10
2022-10-28T05:08:03.659Z,9.10
2022-10-28T05:10:31.462Z,9.10
2022-10-28T05:12:59.228Z,9.20
2022-10-28T05:15:27.274Z,9.20
2022-10-28T05:17:55.464Z,9.10
2022-10-28T05:20:23.923Z,9.30
2022-10-28T05:22:55.802Z,9.20
2022-10-28T05:25:24.338Z,9.20
2022-10-28T05:27:52.410Z,9.20
2022-10-28T05:30:20.364Z,9.10
2022-10-28T05:32:50.379Z,9.10
2022-10-28T05:35:20.768Z,9.00
2022-10-28T05:37:48.541Z,9.10
2022-10-28T05:40:17.836Z,9.00
2022-10-28T05:42:45.649Z,9.00
2022-10-28T05:45:13.903Z,9.00
2022-10-28T05:47:44.280Z,9.00
2022-10-28T05:50:12.464Z,9.00
2022-10-28T05:52:40.242Z,9.10
2022-10-28T05:55:09.702Z,9.10
2022-10-28T05:57:39.275Z,9.20
2022-10-28T06:00:08.459Z,9.20
2022-10-28T06:02:36.224Z,9.30
2022-10-28T06:05:04.223Z,9.30
2022-10-28T06:07:32.033Z,9.30
2022-10-28T06:09:59.777Z,9.40
2022-10-28T06:12:26.374Z,9.50
2022-10-28T06:14:55.484Z,9.40
2022-10-28T06:17:23.551Z,9.50
2022-10-28T06:19:51.415Z,9.40
2022-10-28T06:22:19.315Z,9.50
2022-10-28T06:24:47.079Z,9.40
2022-10-28T06:27:14.884Z,9.40
2022-10-28T06:29:42.659Z,9.40
2022-10-28T06:32:11.786Z,9.50
2022-10-28T06:34:39.591Z,9.50
2022-10-28T06:37:08.945Z,9.60
2022-10-28T06:39:38.242Z,9.60
2022-10-28T06:42:06.143Z,9.70
2022-10-28T06:44:33.908Z,9.70
2022-10-28T06:47:03.221Z,9.80
2022-10-28T06:49:32.684Z,9.80
2022-10-28T06:52:00.508Z,9.80
2022-10-28T06:54:28.284Z,9.80
2022-10-28T06:56:56.068Z,9.90
2022-10-28T06:59:23.876Z,10.00
2022-10-28T07:01:51.674Z,10.00
2022-10-28T07:04:19.558Z,10.00
2022-10-28T07:06:51.239Z,10.10
2022-10-28T07:09:19.835Z,10.20
2022-10-28T07:11:54.804Z,10.30
2022-10-28T07:14:23.182Z,10.30
2022-10-28T07:16:50.991Z,10.40
2022-10-28T07:19:22.480Z,10.50
2022-10-28T07:21:51.925Z,10.60
2022-10-28T07:24:19.798Z,10.70
2022-10-28T07:26:50.297Z,10.80
2022-10-28T07:29:20.060Z,10.90
2022-10-28T07:31:47.795Z,11.00
2022-10-28T07:34:15.824Z,11.10
2022-10-28T07:36:43.753Z,11.30
2022-10-28T07:39:12.962Z,11.40
2022-10-28T07:41:40.788Z,11.50
2022-10-28T07:44:08.574Z,11.60
2022-10-28T07:46:36.403Z,11.80
2022-10-28T07:49:04.545Z,12.00
2022-10-28T07:51:32.324Z,12.20
2022-10-28T07:54:00.250Z,12.40
2022-10-28T07:56:29.394Z,12.60
2022-10-28T07:58:57.213Z,12.80
2022-10-28T08:01:25.068Z,13.00
2022-10-28T08:03:52.951Z,13.30
2022-10-28T08:06:22.707Z,13.50
2022-10-28T08:08:55.141Z,13.80
2022-10-28T08:11:24.746Z,14.00
2022-10-28T08:13:55.752Z,14.30
2022-10-28T08:16:23.681Z,14.50
2022-10-28T08:18:53.054Z,14.70
2022-10-28T08:21:20.867Z,15.00
2022-10-28T08:23:48.659Z,15.20
2022-10-28T08:26:17.321Z,15.30
2022-10-28T08:28:45.102Z,15.50
2022-10-28T08:31:14.383Z,15.60
2022-10-28T08:33:44.308Z,15.70
2022-10-28T08:36:13.717Z,15.80
2022-10-28T08:38:45.305Z,15.90
2022-10-28T08:41:35.941Z,15.90
2022-10-28T08:44:50.293Z,16.00
2022-10-28T08:47:30.455Z,16.10
2022-10-28T08:50:03.640Z,16.10
2022-10-28T08:52:35.741Z,16.20
2022-10-28T08:55:07.037Z,16.30
2022-10-28T08:57:40.036Z,16.30
2022-10-28T09:00:14.029Z,16.40
2022-10-28T09:02:57.412Z,16.50
2022-10-28T09:05:26.816Z,16.50
2022-10-28T09:07:56.679Z,16.60
2022-10-28T09:10:45.071Z,16.70
2022-10-28T09:13:22.109Z,16.70
2022-10-28T09:15:58.648Z,16.70
2022-10-28T09:18:42.157Z,16.70
2022-10-28T09:21:19.201Z,16.70
2022-10-28T09:23:55.148Z,16.70
2022-10-28T09:26:36.633Z,16.70
2022-10-28T09:29:16.390Z,16.70
2022-10-28T09:31:48.330Z,16.80
2022-10-28T09:34:27.909Z,16.90
2022-10-28T09:36:59.324Z,17.20
2022-10-28T09:39:33.162Z,17.40
2022-10-28T09:42:03.663Z,17.70
2022-10-28T09:44:40.026Z,17.90
2022-10-28T09:47:15.910Z,18.20
2022-10-28T09:49:47.182Z,18.30
2022-10-28T09:52:20.160Z,18.40
2022-10-28T09:54:51.767Z,18.50
2022-10-28T09:57:20.101Z,18.60
2022-10-28T09:59:48.542Z,18.70
2022-10-28T10:02:30.233Z,18.80
2022-10-28T10:05:01.701Z,19.00
2022-10-28T10:07:34.801Z,19.10
2022-10-28T10:10:07.122Z,19.20
2022-10-28T10:12:35.331Z,19.40
2022-10-28T10:15:07.013Z,19.60
2022-10-28T10:17:41.425Z,19.80
2022-10-28T10:20:12.518Z,19.90
2022-10-28T10:22:42.335Z,19.80
2022-10-28T10:25:29.786Z,19.80
2022-10-28T10:28:00.300Z,19.70
2022-10-28T10:30:32.217Z,19.70
2022-10-28T10:33:00.586Z,19.70
2022-10-28T10:35:31.455Z,19.90
2022-10-28T10:38:02.166Z,19.90
2022-10-28T10:40:32.063Z,20.10
2022-10-28T10:43:24.480Z,20.10
2022-10-28T10:45:54.446Z,20.20
2022-10-28T10:48:22.226Z,20.10
2022-10-28T10:50:52.106Z,20.00
2022-10-28T10:53:22.593Z,20.00
2022-10-28T10:55:53.172Z,19.90
2022-10-28T10:58:23.464Z,19.80
2022-10-28T11:00:53.544Z,19.70
2022-10-28T11:03:25.489Z,19.60
2022-10-28T11:06:18.459Z,19.60
2022-10-28T11:08:45.158Z,19.50
2022-10-28T11:11:15.636Z,19.50
2022-10-28T11:13:46.153Z,19.70
2022-10-28T11:16:22.385Z,19.80
2022-10-28T11:18:52.700Z,20.00
2022-10-28T11:21:48.130Z,20.10
2022-10-28T11:24:31.375Z,20.30
2022-10-28T11:27:09.765Z,20.50
2022-10-28T11:29:37.643Z,20.70
2022-10-28T11:32:29.429Z,20.80
2022-10-28T11:35:11.292Z,20.90
2022-10-28T11:37:58.765Z,20.90
2022-10-28T11:40:34.448Z,20.80
2022-10-28T11:43:18.797Z,20.90
2022-10-28T11:45:53.760Z,21.00
2022-10-28T11:48:33.111Z,21.10
2022-10-28T11:51:12.660Z,21.00
2022-10-28T11:54:17.718Z,21.20
2022-10-28T11:56:49.712Z,21.20
2022-10-28T11:59:42.857Z,21.20
2022-10-28T12:02:23.582Z,21.40
2022-10-28T12:05:02.481Z,21.30
2022-10-28T12:07:52.156Z,21.40
2022-10-28T12:10:41.622Z,21.50
2022-10-28T12:13:19.372Z,21.50
2022-10-28T12:15:57.160Z,21.50
2022-10-28T12:18:33.427Z,21.60
2022-10-28T12:21:07.580Z,21.80
2022-10-28T12:23:39.343Z,22.00
2022-10-28T12:26:13.591Z,22.30
2022-10-28T12:28:45.855Z,22.40
2022-10-28T12:31:21.619Z,22.20
2022-10-28T12:33:52.572Z,22.20
2022-10-28T12:36:31.904Z,22.00
2022-10-28T12:39:03.605Z,22.10
2022-10-28T12:41:46.721Z,22.20
2022-10-28T12:44:17.459Z,22.20
2022-10-28T12:46:53.537Z,22.20
2022-10-28T12:49:29.010Z,22.00
2022-10-28T12:52:01.874Z,21.90
2022-10-28T12:54:37.450Z,22.00
2022-10-28T12:57:14.013Z,22.00
2022-10-28T12:59:45.501Z,21.90
2022-10-28T13:02:18.352Z,21.80
2022-10-28T13:04:46.435Z,21.70
2022-10-28T13:07:48.831Z,21.60
2022-10-28T13:10:29.930Z,21.40
2022-10-28T13:13:23.971Z,21.50
2022-10-28T13:16:25.202Z,21.50
2022-10-28T13:19:16.784Z,21.50
2022-10-28T13:22:15.326Z,21.70
2022-10-28T13:24:55.375Z,21.80
2022-10-28T13:27:23.903Z,22.00
2022-10-28T13:29:56.268Z,22.10
2022-10-28T13:32:37.363Z,22.20
2022-10-28T13:35:14.862Z,22.20
2022-10-28T13:37:46.240Z,22.00
2022-10-28T13:40:24.016Z,21.90
2022-10-28T13:42:52.036Z,21.80
2022-10-28T13:45:48.115Z,21.70
2022-10-28T13:48:49.162Z,21.50
2022-10-28T13:51:33.780Z,21.50
2022-10-28T13:54:02.088Z,21.40
2022-10-28T13:56:50.880Z,21.30
2022-10-28T13:59:27.630Z,21.20
2022-10-28T14:02:32.537Z,21.10
2022-10-28T14:05:00.049Z,21.00
2022-10-28T14:07:31.331Z,20.80
2022-10-28T14:10:20.242Z,20.70
2022-10-28T14:12:52.285Z,20.60
2022-10-28T14:15:26.287Z,20.60
2022-10-28T14:18:09.917Z,20.60
2022-10-28T14:20:54.802Z,20.50
2022-10-28T14:23:51.651Z,20.50
2022-10-28T14:26:19.446Z,20.40
2022-10-28T14:28:56.761Z,20.40
2022-10-28T14:31:44.791Z,20.40
2022-10-28T14:34:42.203Z,20.60
2022-10-28T14:37:57.145Z,20.80
2022-10-28T14:40:33.445Z,20.80
2022-10-28T14:43:24.014Z,21.00
2022-10-28T14:46:04.941Z,21.10
2022-10-28T14:48:47.653Z,21.20
2022-10-28T14:51:19.709Z,21.00
2022-10-28T14:53:48.426Z,20.90
2022-10-28T14:56:25.888Z,20.80
2022-10-28T14:58:55.784Z,20.80
2022-10-28T15:01:28.708Z,20.70
2022-10-28T15:04:02.111Z,20.50
2022-10-28T15:06:37.350Z,20.60
2022-10-28T15:09:11.481Z,20.30
2022-10-28T15:11:43.807Z,20.10
2022-10-28T15:14:23.711Z,19.90
2022-10-28T15:16:52.210Z,19.70
2022-10-28T15:19:21.841Z,19.60
2022-10-28T15:22:12.090Z,19.40
2022-10-28T15:24:43.076Z,19.20
2022-10-28T15:27:15.028Z,19.20
2022-10-28T15:29:43.621Z,19.00
2022-10-28T15:32:16.097Z,18.90
2022-10-28T15:34:44.397Z,18.80
2022-10-28T15:37:18.625Z,18.70
2022-10-28T15:39:46.863Z,18.50
2022-10-28T15:42:39.791Z,18.40
2022-10-28T15:45:16.551Z,18.30
2022-10-28T15:47:46.874Z,18.10
2022-10-28T15:50:31.558Z,18.00
2022-10-28T15:53:37.545Z,17.90
2022-10-28T15:56:10.570Z,17.70
2022-10-28T15:58:41.007Z,17.70
2022-10-28T16:01:11.390Z,17.50
2022-10-28T16:03:45.354Z,17.40
2022-10-28T16:06:25.746Z,17.30
2022-10-28T16:09:07.531Z,17.10
2022-10-28T16:11:39.228Z,17.10
2022-10-28T16:14:30.725Z,17.00
2022-10-28T16:19:41.868Z,16.80
2022-10-28T16:22:13.548Z,16.70
2022-10-28T16:24:42.962Z,16.60
2022-10-28T16:27:17.319Z,16.60
2022-10-28T16:29:45.837Z,16.60
2022-10-28T16:32:15.538Z,16.50
2022-10-28T16:34:43.451Z,16.40
2022-10-28T16:37:23.367Z,16.40
2022-10-28T16:39:52.615Z,16.40
2022-10-28T16:42:21.792Z,16.30
2022-10-28T16:44:49.659Z,16.30
2022-10-28T16:47:19.169Z,16.30
2022-10-28T16:49:52.400Z,16.20
2022-10-28T16:52:25.961Z,16.10
2022-10-28T16:54:55.082Z,16.10
2022-10-28T16:59:56.866Z,16.00
2022-10-28T17:02:28.937Z,15.90
2022-10-28T17:04:57.521Z,15.80
2022-10-28T17:07:25.865Z,15.80
2022-10-28T17:09:55.078Z,15.80
2022-10-28T17:12:24.608Z,15.70
2022-10-28T17:14:52.685Z,15.70
2022-10-28T17:17:20.720Z,15.70
2022-10-28T17:19:48.521Z,15.60
2022-10-28T17:22:16.285Z,15.60
2022-10-28T17:24:44.080Z,15.50
2022-10-28T17:27:13.750Z,15.40
2022-10-28T17:29:41.579Z,15.30
2022-10-28T17:32:09.718Z,15.20
2022-10-28T17:34:38.012Z,15.20
2022-10-28T17:37:07.460Z,15.10
2022-10-28T17:39:35.239Z,15.10
2022-10-28T17:42:03.831Z,15.10
2022-10-28T17:44:32.949Z,15.00
2022-10-28T17:47:00.695Z,15.00
2022-10-28T17:49:28.514Z,14.90
2022-10-28T17:51:56.332Z,14.90
2022-10-28T17:56:56.759Z,14.70
2022-10-28T17:59:24.611Z,14.80
2022-10-28T18:01:54.347Z,14.80
2022-10-28T18:04:26.149Z,14.70
2022-10-28T18:06:55.173Z,14.70
2022-10-28T18:09:22.964Z,14.70
2022-10-28T18:11:50.957Z,14.70
2022-10-28T18:14:20.056Z,14.70
2022-10-28T18:16:50.029Z,14.70
2022-10-28T18:19:19.198Z,14.70
2022-10-28T18:21:47.002Z,14.70
2022-10-28T18:24:14.927Z,14.60
2022-10-28T18:26:42.755Z,14.60
2022-10-28T18:29:12.993Z,14.60
2022-10-28T18:31:44.097Z,14.50
2022-10-28T18:34:12.146Z,14.50
2022-10-28T18:36:41.342Z,14.50
2022-10-28T18:39:09.832Z,14.50
2022-10-28T18:41:41.503Z,14.50
2022-10-28T18:44:12.573Z,14.50
2022-10-28T18:46:40.648Z,14.50
2022-10-28T18:49:08.421Z,14.50
2022-10-28T18:51:36.244Z,14.50
2022-10-28T18:54:05.754Z,14.50
2022-10-28T18:56:34.012Z,14.50
2022-10-28T18:59:03.549Z,14.50
2022-10-28T19:01:32.090Z,14.50
2022-10-28T19:04:01.432Z,14.50
2022-10-28T19:06:32.540Z,14.50
2022-10-28T19:09:02.108Z,14.50
2022-10-28T19:11:32.642Z,14.50
2022-10-28T19:14:02.339Z,14.50
2022-10-28T19:16:31.857Z,14.50
2022-10-28T19:19:00.886Z,14.50
2022-10-28T19:21:29.338Z,14.50
2022-10-28T19:23:57.222Z,14.50
2022-10-28T19:26:25.149Z,14.50
2022-10-28T19:28:54.485Z,14.50
2022-10-28T19:31:24.202Z,14.60
2022-10-28T19:33:53.158Z,14.60
2022-10-28T19:36:22.705Z,14.60
2022-10-28T19:38:53.449Z,14.70
2022-10-28T19:41:22.784Z,14.70
2022-10-28T19:43:58.132Z,14.70
2022-10-28T19:46:27.557Z,14.70
2022-10-28T19:48:57.669Z,14.60
2022-10-28T19:51:28.134Z,14.60
2022-10-28T19:53:57.460Z,14.70
2022-10-28T19:56:26.030Z,14.60
2022-10-28T19:58:56.434Z,14.60
2022-10-28T20:01:25.989Z,14.60
2022-10-28T20:03:55.372Z,14.50
2022-10-28T20:06:24.796Z,14.50
2022-10-28T20:08:52.922Z,14.60
2022-10-28T20:11:25.889Z,14.60
2022-10-28T20:13:57.698Z,14.60
2022-10-28T20:16:25.997Z,14.60
2022-10-28T20:18:55.067Z,14.60
2022-10-28T20:21:24.601Z,14.50
2022-10-28T20:23:54.568Z,14.40
2022-10-28T20:26:23.880Z,14.40
2022-10-28T20:28:51.768Z,14.40
2022-10-28T20:31:22.548Z,14.40
2022-10-28T20:33:52.463Z,14.40
2022-10-28T20:36:25.180Z,14.30
2022-10-28T20:38:57.639Z,14.30
2022-10-28T20:41:27.385Z,14.30
2022-10-28T20:43:55.607Z,14.30
2022-10-28T20:46:26.393Z,14.30
2022-10-28T20:48:54.718Z,14.30
2022-10-28T20:51:23.309Z,14.20
2022-10-28T20:53:51.511Z,14.20
2022-10-28T20:56:21.200Z,14.20
2022-10-28T20:58:49.100Z,14.20
2022-10-28T21:01:18.768Z,14.30
2022-10-28T21:03:49.000Z,14.30
2022-10-28T21:06:17.804Z,14.20
2022-10-28T21:08:45.630Z,14.20
2022-10-28T21:11:14.502Z,14.20
2022-10-28T21:13:42.977Z,14.20
2022-10-28T21:16:12.904Z,14.20
2022-10-28T21:18:41.235Z,14.10
2022-10-28T21:21:11.997Z,14.10
2022-10-28T21:23:39.857Z,14.10
2022-10-28T21:26:09.557Z,14.10
2022-10-28T21:28:37.577Z,14.10
2022-10-28T21:31:06.794Z,14.00
2022-10-28T21:33:35.772Z,13.90
2022-10-28T21:36:05.865Z,13.90
2022-10-28T21:38:35.397Z,14.00
2022-10-28T21:41:05.375Z,13.90
2022-10-28T21:43:35.345Z,13.90
2022-10-28T21:46:03.349Z,14.00
2022-10-28T21:48:32.184Z,13.90
2022-10-28T21:51:02.370Z,13.90
2022-10-28T21:53:35.070Z,13.90
2022-10-28T21:56:04.602Z,13.90
2022-10-28T21:58:32.394Z,13.90
2022-10-28T22:01:05.128Z,13.80
2022-10-28T22:03:32.963Z,13.80
2022-10-28T22:06:00.736Z,13.70
2022-10-28T22:08:28.861Z,13.60
2022-10-28T22:11:02.273Z,13.60
2022-10-28T22:13:30.074Z,13.60
2022-10-28T22:15:59.527Z,13.50
2022-10-28T22:18:27.998Z,13.50
2022-10-28T22:20:56.007Z,13.50
2022-10-28T22:23:24.013Z,13.40
2022-10-28T22:25:51.769Z,13.40
2022-10-28T22:28:20.921Z,13.40
2022-10-28T22:30:48.669Z,13.40
2022-10-28T22:33:16.440Z,13.30
2022-10-28T22:35:44.228Z,13.30
2022-10-28T22:38:11.962Z,13.20
2022-10-28T22:40:39.722Z,13.20
2022-10-28T22:43:07.524Z,13.10
2022-10-28T22:45:36.741Z,13.10
2022-10-28T22:48:04.728Z,13.10
2022-10-28T22:50:32.567Z,13.10
2022-10-28T22:53:00.341Z,13.10
2022-10-28T22:55:28.089Z,13.00
2022-10-28T22:57:57.963Z,13.00
2022-10-28T23:00:26.045Z,12.90
2022-10-28T23:02:57.065Z,12.90
2022-10-28T23:05:25.149Z,12.80
2022-10-28T23:07:54.417Z,12.80
2022-10-28T23:10:22.280Z,12.80
2022-10-28T23:12:56.227Z,12.80
2022-10-28T23:15:24.250Z,12.70
2022-10-28T23:17:53.096Z,12.70
2022-10-28T23:20:24.620Z,12.60
2022-10-28T23:22:55.781Z,12.50
2022-10-28T23:25:23.573Z,12.50
2022-10-28T23:27:51.332Z,12.50
2022-10-28T23:30:19.209Z,12.40
2022-10-28T23:32:47.289Z,12.40
2022-10-28T23:35:15.454Z,12.40
2022-10-28T23:37:44.556Z,12.30
2022-10-28T23:40:13.021Z,12.30
2022-10-28T23:42:40.843Z,12.40
2022-10-28T23:45:09.477Z,12.30
2022-10-28T23:47:37.236Z,12.20
2022-10-28T23:50:05.764Z,12.20
2022-10-28T23:52:33.534Z,12.20
2022-10-28T23:55:02.625Z,12.20
2022-10-28T23:57:30.402Z,12.10
2022-10-28T23:59:58.153Z,12.10
